Terminal Aerodrome Forecast
Issued by NWS

Home | Current Version | Previous Version | Text Only | Print | Product List | Glossary On
Versions: 1 2 3 4 5 6 7 8 9 10 11 12 13 14 15 16 17 18 19 20 21 22 23
000
FTUS45 KPIH 010500
TAFSUN
TAF
KSUN 010520Z 0106/0206 VRB06KT P6SM VCSH SCT080 BKN100
     FM010800 31010KT P6SM BKN120
     FM011800 13006KT P6SM SKC
     FM020300 32012KT P6SM SKC
      AMD LTD TO CLD VIS AND WIND TIL 011400=

USA.gov is the U.S. government's official web portal to all federal, state and local government web resources and services.